sensor_id;sensor_type;location;lat;lon;timestamp;pressure;altitude;pressure_sealevel;temperature;humidity
38806;BME280;25635;51.146;17.162;2024-01-30T00:00:00;101706.02;;;-1.00;79.89
38806;BME280;25635;51.146;17.162;2024-01-30T00:02:28;101710.10;;;-1.00;79.99
38806;BME280;25635;51.146;17.162;2024-01-30T00:04:54;101704.88;;;-1.02;80.03
38806;BME280;25635;51.146;17.162;2024-01-30T00:07:20;101705.73;;;-1.05;80.18
38806;BME280;25635;51.146;17.162;2024-01-30T00:09:47;101711.98;;;-1.06;80.36
38806;BME280;25635;51.146;17.162;2024-01-30T00:12:14;101712.77;;;-1.07;80.23
38806;BME280;25635;51.146;17.162;2024-01-30T00:14:43;101704.84;;;-1.08;80.58
38806;BME280;25635;51.146;17.162;2024-01-30T00:17:09;101705.65;;;-1.06;81.20
38806;BME280;25635;51.146;17.162;2024-01-30T00:19:35;101703.07;;;-0.98;81.18
38806;BME280;25635;51.146;17.162;2024-01-30T00:22:01;101701.64;;;-0.88;81.30
38806;BME280;25635;51.146;17.162;2024-01-30T00:24:28;101704.79;;;-0.79;81.13
38806;BME280;25635;51.146;17.162;2024-01-30T00:26:54;101704.74;;;-0.77;80.64
38806;BME280;25635;51.146;17.162;2024-01-30T00:29:20;101703.62;;;-0.75;80.52
38806;BME280;25635;51.146;17.162;2024-01-30T00:31:48;101704.95;;;-0.76;80.41
38806;BME280;25635;51.146;17.162;2024-01-30T00:34:14;101710.58;;;-0.76;80.64
38806;BME280;25635;51.146;17.162;2024-01-30T00:36:40;101710.38;;;-0.77;80.78
38806;BME280;25635;51.146;17.162;2024-01-30T00:39:06;101713.66;;;-0.76;80.81
38806;BME280;25635;51.146;17.162;2024-01-30T00:41:35;101709.77;;;-0.75;80.95
38806;BME280;25635;51.146;17.162;2024-01-30T00:44:01;101707.80;;;-0.77;80.82
38806;BME280;25635;51.146;17.162;2024-01-30T00:46:27;101706.64;;;-0.79;80.63
38806;BME280;25635;51.146;17.162;2024-01-30T00:48:53;101708.77;;;-0.80;80.92
38806;BME280;25635;51.146;17.162;2024-01-30T00:51:19;101707.23;;;-0.81;80.87
38806;BME280;25635;51.146;17.162;2024-01-30T00:53:45;101711.63;;;-0.79;80.88
38806;BME280;25635;51.146;17.162;2024-01-30T00:56:11;101714.40;;;-0.75;80.93
38806;BME280;25635;51.146;17.162;2024-01-30T00:58:37;101712.71;;;-0.72;80.80
38806;BME280;25635;51.146;17.162;2024-01-30T01:01:04;101710.21;;;-0.68;81.02
38806;BME280;25635;51.146;17.162;2024-01-30T01:03:30;101714.30;;;-0.66;80.79
38806;BME280;25635;51.146;17.162;2024-01-30T01:05:56;101710.59;;;-0.65;80.78
38806;BME280;25635;51.146;17.162;2024-01-30T01:08:22;101706.93;;;-0.66;80.82
38806;BME280;25635;51.146;17.162;2024-01-30T01:10:48;101706.81;;;-0.68;80.96
38806;BME280;25635;51.146;17.162;2024-01-30T01:13:14;101705.37;;;-0.69;80.97
38806;BME280;25635;51.146;17.162;2024-01-30T01:15:40;101707.45;;;-0.71;80.95
38806;BME280;25635;51.146;17.162;2024-01-30T01:18:06;101716.45;;;-0.75;80.90
38806;BME280;25635;51.146;17.162;2024-01-30T01:20:32;101713.51;;;-0.79;81.01
38806;BME280;25635;51.146;17.162;2024-01-30T01:22:58;101715.52;;;-0.82;80.67
38806;BME280;25635;51.146;17.162;2024-01-30T01:25:24;101714.31;;;-0.85;80.66
38806;BME280;25635;51.146;17.162;2024-01-30T01:27:50;101709.55;;;-0.88;80.66
38806;BME280;25635;51.146;17.162;2024-01-30T01:30:18;101703.52;;;-0.91;80.61
38806;BME280;25635;51.146;17.162;2024-01-30T01:32:50;101703.55;;;-0.90;80.94
38806;BME280;25635;51.146;17.162;2024-01-30T01:35:24;101702.86;;;-0.90;80.89
38806;BME280;25635;51.146;17.162;2024-01-30T01:37:54;101699.65;;;-0.93;80.86
38806;BME280;25635;51.146;17.162;2024-01-30T01:40:26;101703.97;;;-0.94;80.79
38806;BME280;25635;51.146;17.162;2024-01-30T01:42:54;101700.75;;;-0.96;81.10
38806;BME280;25635;51.146;17.162;2024-01-30T01:45:21;101699.88;;;-0.99;80.92
38806;BME280;25635;51.146;17.162;2024-01-30T01:47:50;101700.70;;;-1.03;81.29
38806;BME280;25635;51.146;17.162;2024-01-30T01:50:17;101702.73;;;-1.06;81.25
38806;BME280;25635;51.146;17.162;2024-01-30T01:52:50;101700.65;;;-1.10;80.94
38806;BME280;25635;51.146;17.162;2024-01-30T01:55:16;101699.79;;;-1.12;80.96
38806;BME280;25635;51.146;17.162;2024-01-30T01:57:47;101695.94;;;-1.14;81.11
38806;BME280;25635;51.146;17.162;2024-01-30T02:00:13;101700.23;;;-1.13;81.06
38806;BME280;25635;51.146;17.162;2024-01-30T02:02:41;101697.82;;;-1.13;80.53
38806;BME280;25635;51.146;17.162;2024-01-30T02:05:08;101699.52;;;-1.14;80.56
38806;BME280;25635;51.146;17.162;2024-01-30T02:07:34;101698.45;;;-1.14;81.05
38806;BME280;25635;51.146;17.162;2024-01-30T02:10:00;101699.16;;;-1.14;81.23
38806;BME280;25635;51.146;17.162;2024-01-30T02:12:26;101694.50;;;-1.14;81.41
38806;BME280;25635;51.146;17.162;2024-01-30T02:14:52;101693.76;;;-1.16;81.56
38806;BME280;25635;51.146;17.162;2024-01-30T02:17:19;101695.23;;;-1.16;81.64
38806;BME280;25635;51.146;17.162;2024-01-30T02:19:45;101694.85;;;-1.20;81.55
38806;BME280;25635;51.146;17.162;2024-01-30T02:22:12;101689.73;;;-1.22;81.63
38806;BME280;25635;51.146;17.162;2024-01-30T02:24:39;101688.65;;;-1.23;82.09
38806;BME280;25635;51.146;17.162;2024-01-30T02:27:05;101685.48;;;-1.22;82.39
38806;BME280;25635;51.146;17.162;2024-01-30T02:29:31;101689.25;;;-1.19;82.25
38806;BME280;25635;51.146;17.162;2024-01-30T02:31:57;101687.23;;;-1.16;82.48
38806;BME280;25635;51.146;17.162;2024-01-30T02:34:24;101688.80;;;-1.13;82.09
38806;BME280;25635;51.146;17.162;2024-01-30T02:36:50;101687.48;;;-1.09;82.19
38806;BME280;25635;51.146;17.162;2024-01-30T02:39:16;101689.61;;;-1.05;82.15
38806;BME280;25635;51.146;17.162;2024-01-30T02:41:43;101691.87;;;-1.02;82.22
38806;BME280;25635;51.146;17.162;2024-01-30T02:44:09;101696.31;;;-1.02;82.02
38806;BME280;25635;51.146;17.162;2024-01-30T02:46:35;101689.05;;;-1.03;81.88
38806;BME280;25635;51.146;17.162;2024-01-30T02:49:01;101685.54;;;-1.07;81.65
38806;BME280;25635;51.146;17.162;2024-01-30T02:51:27;101684.47;;;-1.11;81.75
38806;BME280;25635;51.146;17.162;2024-01-30T02:53:53;101683.40;;;-1.14;81.71
38806;BME280;25635;51.146;17.162;2024-01-30T02:56:19;101685.76;;;-1.17;81.84
38806;BME280;25635;51.146;17.162;2024-01-30T02:58:45;101686.83;;;-1.22;81.65
38806;BME280;25635;51.146;17.162;2024-01-30T03:01:12;101681.41;;;-1.27;81.81
38806;BME280;25635;51.146;17.162;2024-01-30T03:03:38;101687.72;;;-1.30;81.65
38806;BME280;25635;51.146;17.162;2024-01-30T03:06:05;101679.33;;;-1.33;81.28
38806;BME280;25635;51.146;17.162;2024-01-30T03:08:31;101680.68;;;-1.35;81.28
38806;BME280;25635;51.146;17.162;2024-01-30T03:10:57;101685.49;;;-1.38;81.40
38806;BME280;25635;51.146;17.162;2024-01-30T03:13:24;101686.58;;;-1.43;81.39
38806;BME280;25635;51.146;17.162;2024-01-30T03:15:51;101688.05;;;-1.46;81.37
38806;BME280;25635;51.146;17.162;2024-01-30T03:18:17;101689.07;;;-1.52;81.15
38806;BME280;25635;51.146;17.162;2024-01-30T03:20:43;101691.65;;;-1.56;81.15
38806;BME280;25635;51.146;17.162;2024-01-30T03:23:09;101692.29;;;-1.63;81.11
38806;BME280;25635;51.146;17.162;2024-01-30T03:25:36;101688.17;;;-1.71;81.35
38806;BME280;25635;51.146;17.162;2024-01-30T03:28:02;101687.63;;;-1.79;81.38
38806;BME280;25635;51.146;17.162;2024-01-30T03:30:28;101686.52;;;-1.88;80.91
38806;BME280;25635;51.146;17.162;2024-01-30T03:32:54;101685.55;;;-1.95;81.21
38806;BME280;25635;51.146;17.162;2024-01-30T03:35:20;101681.39;;;-2.01;81.18
38806;BME280;25635;51.146;17.162;2024-01-30T03:37:46;101677.60;;;-2.07;81.64
38806;BME280;25635;51.146;17.162;2024-01-30T03:40:13;101677.61;;;-2.09;81.61
38806;BME280;25635;51.146;17.162;2024-01-30T03:42:39;101676.52;;;-2.10;82.08
38806;BME280;25635;51.146;17.162;2024-01-30T03:45:06;101675.29;;;-2.11;81.98
38806;BME280;25635;51.146;17.162;2024-01-30T03:47:32;101673.15;;;-2.12;81.75
38806;BME280;25635;51.146;17.162;2024-01-30T03:49:58;101669.98;;;-2.13;81.77
38806;BME280;25635;51.146;17.162;2024-01-30T03:52:24;101668.75;;;-2.11;82.47
38806;BME280;25635;51.146;17.162;2024-01-30T03:54:50;101669.50;;;-2.11;81.99
38806;BME280;25635;51.146;17.162;2024-01-30T03:57:16;101669.89;;;-2.12;81.82
38806;BME280;25635;51.146;17.162;2024-01-30T03:59:42;101676.17;;;-2.18;81.71
38806;BME280;25635;51.146;17.162;2024-01-30T04:02:10;101674.86;;;-2.25;81.84
38806;BME280;25635;51.146;17.162;2024-01-30T04:04:36;101670.27;;;-2.32;81.54
38806;BME280;25635;51.146;17.162;2024-01-30T04:07:03;101668.89;;;-2.37;81.57
38806;BME280;25635;51.146;17.162;2024-01-30T04:09:29;101668.44;;;-2.41;81.97
38806;BME280;25635;51.146;17.162;2024-01-30T04:11:55;101666.21;;;-2.47;82.48
38806;BME280;25635;51.146;17.162;2024-01-30T04:14:21;101669.73;;;-2.48;83.09
38806;BME280;25635;51.146;17.162;2024-01-30T04:16:47;101669.39;;;-2.46;83.29
38806;BME280;25635;51.146;17.162;2024-01-30T04:19:13;101667.30;;;-2.43;83.53
38806;BME280;25635;51.146;17.162;2024-01-30T04:21:39;101663.71;;;-2.38;83.69
38806;BME280;25635;51.146;17.162;2024-01-30T04:24:05;101662.17;;;-2.33;83.95
38806;BME280;25635;51.146;17.162;2024-01-30T04:26:31;101663.33;;;-2.29;83.80
38806;BME280;25635;51.146;17.162;2024-01-30T04:28:58;101667.64;;;-2.26;84.15
38806;BME280;25635;51.146;17.162;2024-01-30T04:31:24;101668.27;;;-2.21;83.76
38806;BME280;25635;51.146;17.162;2024-01-30T04:33:50;101664.68;;;-2.18;83.83
38806;BME280;25635;51.146;17.162;2024-01-30T04:36:16;101671.42;;;-2.18;84.02
38806;BME280;25635;51.146;17.162;2024-01-30T04:38:42;101677.39;;;-2.15;83.76
38806;BME280;25635;51.146;17.162;2024-01-30T04:41:08;101678.14;;;-2.14;83.84
38806;BME280;25635;51.146;17.162;2024-01-30T04:43:34;101675.41;;;-2.14;83.83
38806;BME280;25635;51.146;17.162;2024-01-30T04:46:00;101678.29;;;-2.14;83.81
38806;BME280;25635;51.146;17.162;2024-01-30T04:48:27;101676.00;;;-2.18;83.37
38806;BME280;25635;51.146;17.162;2024-01-30T04:50:53;101676.41;;;-2.22;83.70
38806;BME280;25635;51.146;17.162;2024-01-30T04:53:20;101672.89;;;-2.26;83.63
38806;BME280;25635;51.146;17.162;2024-01-30T04:55:46;101676.08;;;-2.27;83.59
38806;BME280;25635;51.146;17.162;2024-01-30T04:58:12;101677.23;;;-2.25;83.89
38806;BME280;25635;51.146;17.162;2024-01-30T05:00:38;101676.88;;;-2.22;83.94
38806;BME280;25635;51.146;17.162;2024-01-30T05:03:04;101674.02;;;-2.22;83.79
38806;BME280;25635;51.146;17.162;2024-01-30T05:05:30;101677.63;;;-2.22;83.66
38806;BME280;25635;51.146;17.162;2024-01-30T05:07:56;101683.86;;;-2.20;83.97
38806;BME280;25635;51.146;17.162;2024-01-30T05:10:22;101687.62;;;-2.18;84.01
38806;BME280;25635;51.146;17.162;2024-01-30T05:12:48;101685.67;;;-2.14;84.25
38806;BME280;25635;51.146;17.162;2024-01-30T05:15:14;101683.52;;;-2.13;83.50
38806;BME280;25635;51.146;17.162;2024-01-30T05:17:41;101680.15;;;-2.17;83.11
38806;BME280;25635;51.146;17.162;2024-01-30T05:20:07;101678.30;;;-2.21;83.24
38806;BME280;25635;51.146;17.162;2024-01-30T05:22:34;101677.13;;;-2.24;83.53
38806;BME280;25635;51.146;17.162;2024-01-30T05:25:00;101678.38;;;-2.28;83.04
38806;BME280;25635;51.146;17.162;2024-01-30T05:27:29;101678.49;;;-2.34;83.12
38806;BME280;25635;51.146;17.162;2024-01-30T05:29:55;101676.69;;;-2.38;83.56
38806;BME280;25635;51.146;17.162;2024-01-30T05:32:21;101675.88;;;-2.43;83.62
38806;BME280;25635;51.146;17.162;2024-01-30T05:34:48;101670.48;;;-2.47;83.56
38806;BME280;25635;51.146;17.162;2024-01-30T05:37:16;101671.36;;;-2.49;83.80
38806;BME280;25635;51.146;17.162;2024-01-30T05:39:43;101675.09;;;-2.49;83.83
38806;BME280;25635;51.146;17.162;2024-01-30T05:42:09;101676.44;;;-2.49;83.71
38806;BME280;25635;51.146;17.162;2024-01-30T05:44:35;101680.06;;;-2.49;83.93
38806;BME280;25635;51.146;17.162;2024-01-30T05:47:02;101679.77;;;-2.46;84.17
38806;BME280;25635;51.146;17.162;2024-01-30T05:49:28;101678.20;;;-2.44;83.97
38806;BME280;25635;51.146;17.162;2024-01-30T05:51:54;101682.90;;;-2.45;83.50
38806;BME280;25635;51.146;17.162;2024-01-30T05:54:20;101681.95;;;-2.46;84.05
38806;BME280;25635;51.146;17.162;2024-01-30T05:56:46;101687.29;;;-2.48;83.64
38806;BME280;25635;51.146;17.162;2024-01-30T05:59:12;101687.34;;;-2.53;83.37
38806;BME280;25635;51.146;17.162;2024-01-30T06:01:38;101691.02;;;-2.58;83.61
38806;BME280;25635;51.146;17.162;2024-01-30T06:04:11;101686.38;;;-2.64;83.13
38806;BME280;25635;51.146;17.162;2024-01-30T06:06:37;101689.84;;;-2.71;83.05
38806;BME280;25635;51.146;17.162;2024-01-30T06:09:02;101691.71;;;-2.76;83.72
38806;BME280;25635;51.146;17.162;2024-01-30T06:11:29;101692.03;;;-2.78;83.58
38806;BME280;25635;51.146;17.162;2024-01-30T06:13:55;101689.69;;;-2.83;83.73
38806;BME280;25635;51.146;17.162;2024-01-30T06:16:21;101690.15;;;-2.83;83.89
38806;BME280;25635;51.146;17.162;2024-01-30T06:18:48;101692.27;;;-2.85;83.97
38806;BME280;25635;51.146;17.162;2024-01-30T06:21:14;101690.52;;;-2.88;83.47
38806;BME280;25635;51.146;17.162;2024-01-30T06:23:40;101693.55;;;-2.91;83.19
38806;BME280;25635;51.146;17.162;2024-01-30T06:26:07;101692.42;;;-2.95;82.83
38806;BME280;25635;51.146;17.162;2024-01-30T06:28:33;101691.00;;;-2.96;83.01
38806;BME280;25635;51.146;17.162;2024-01-30T06:31:01;101687.92;;;-2.96;83.62
38806;BME280;25635;51.146;17.162;2024-01-30T06:58:15;101688.30;;;-2.78;84.92
38806;BME280;25635;51.146;17.162;2024-01-30T08:44:08;101673.57;;;1.98;83.90
38806;BME280;25635;51.146;17.162;2024-01-30T11:12:02;101564.16;;;7.47;65.05
38806;BME280;25635;51.146;17.162;2024-01-30T15:11:53;101432.87;;;6.26;61.64
38806;BME280;25635;51.146;17.162;2024-01-30T18:03:51;101469.86;;;3.09;68.77
38806;BME280;25635;51.146;17.162;2024-01-30T19:58:01;101477.88;;;1.05;72.19
38806;BME280;25635;51.146;17.162;2024-01-30T21:31:07;101497.33;;;0.33;74.62
38806;BME280;25635;51.146;17.162;2024-01-30T23:07:38;101514.61;;;0.11;76.48
